Portada
METAR-TAF:

METAR-TAF

Aeropuertos :

Aeropuerto Internacional Yundum

Banjul, Gambia

latitud: 13-21N, longitud: 016-48W, altitud: 36 m

Observación

El informe se hizo hace 1 hora y 3 minutos, a las 00:00 UTC
Viento 8 kt del suroeste
Temperatura 25°C
Humedad 94%
Presión 1012 hPa
Visibilidad: 9000 m

METAR: GBYD 180000Z 22008KT 9000 NSC 25/24 Q1012

Hora: 01:03 (01:03 UTC)

Pronóstico

El informe se hizo hace 2 horas y 3 minutos, a las 23:00 UTC
Pronóstico válido del 17 a las 00 UTC al 18 a las 06 UTC
Viento 6 kt del oeste
Visibilidad: 7000 m

TAF: GBYD 172300Z 1700/1806 26006KT 7000 NSC

Observaciones y pronósticos meteorológicos de más de 4000 aeropuertos (mensajes METAR y TAF).

Los puntos amarillos y rojos representan las estaciones disponibles.

Ponga el ratón en el punto deseado para ver el nombre de la estación.

Haga clic para ver las observaciones y los pronósticos meteorológicos.

Para cambiar el mapa : haga clic en los botones verdes con una cruz de color negro para hacer un zoom, en el botón verde con un guión para alejar o en las flechas verdes para mapas adyacentes.


METAR-TAF: